<?xml version="1.0" encoding="UTF-8" standalone="no" ?>
<gpx xmlns="http://www.topografix.com/GPX/1/1" xmlns:xsi="http://www.w3.org/2001/XMLSchema-instance" xsi:schemaLocation="http://www.topografix.com/GPX/1/1 http://www.topografix.com/GPX/1/1/gpx.xsd" version="1.1" creator="VisuGPX - https://www.visugpx.com">
  <metadata>
    <name>A la recherche de la fraîcheur</name>
  </metadata>
  <trk>
    <name><![CDATA[A la recherche de la fraîcheur]]></name>
    <trkseg>
      <trkpt lat="45.17367" lon="5.74088">
        <ele>216.1</ele>
        <time>2020-04-22T08:05:14Z</time>
      </trkpt>
      <trkpt lat="45.17318" lon="5.74027">
        <ele>215.5</ele>
        <time>2020-04-22T08:05:45Z</time>
      </trkpt>
      <trkpt lat="45.17271" lon="5.74053">
        <ele>216</ele>
        <time>2020-04-22T08:06:09Z</time>
      </trkpt>
      <trkpt lat="45.1721" lon="5.74073">
        <ele>217.7</ele>
        <time>2020-04-22T08:06:33Z</time>
      </trkpt>
      <trkpt lat="45.17127" lon="5.74091">
        <ele>218.1</ele>
        <time>2020-04-22T08:07:17Z</time>
      </trkpt>
      <trkpt lat="45.17084" lon="5.74055">
        <ele>217.6</ele>
        <time>2020-04-22T08:07:40Z</time>
      </trkpt>
      <trkpt lat="45.17048" lon="5.74065">
        <ele>217.2</ele>
        <time>2020-04-22T08:08:03Z</time>
      </trkpt>
      <trkpt lat="45.16981" lon="5.7413">
        <ele>217</ele>
        <time>2020-04-22T08:08:28Z</time>
      </trkpt>
      <trkpt lat="45.16902" lon="5.74256">
        <ele>217</ele>
        <time>2020-04-22T08:09:15Z</time>
      </trkpt>
      <trkpt lat="45.16859" lon="5.74323">
        <ele>216.9</ele>
        <time>2020-04-22T08:09:38Z</time>
      </trkpt>
      <trkpt lat="45.16834" lon="5.74374">
        <ele>216.8</ele>
        <time>2020-04-22T08:10:00Z</time>
      </trkpt>
      <trkpt lat="45.16803" lon="5.74437">
        <ele>216.9</ele>
        <time>2020-04-22T08:10:25Z</time>
      </trkpt>
      <trkpt lat="45.16702" lon="5.74593">
        <ele>217.2</ele>
        <time>2020-04-22T08:11:11Z</time>
      </trkpt>
      <trkpt lat="45.16668" lon="5.74647">
        <ele>217.2</ele>
        <time>2020-04-22T08:11:36Z</time>
      </trkpt>
      <trkpt lat="45.16639" lon="5.74696">
        <ele>216.7</ele>
        <time>2020-04-22T08:11:59Z</time>
      </trkpt>
      <trkpt lat="45.16598" lon="5.74765">
        <ele>216.6</ele>
        <time>2020-04-22T08:12:22Z</time>
      </trkpt>
      <trkpt lat="45.16507" lon="5.74908">
        <ele>215.7</ele>
        <time>2020-04-22T08:13:12Z</time>
      </trkpt>
      <trkpt lat="45.16484" lon="5.74957">
        <ele>216</ele>
        <time>2020-04-22T08:13:32Z</time>
      </trkpt>
      <trkpt lat="45.16302" lon="5.75215">
        <ele>220.4</ele>
        <time>2020-04-22T08:15:14Z</time>
      </trkpt>
      <trkpt lat="45.16253" lon="5.75282">
        <ele>222.7</ele>
        <time>2020-04-22T08:15:41Z</time>
      </trkpt>
      <trkpt lat="45.16223" lon="5.7534">
        <ele>222.9</ele>
        <time>2020-04-22T08:16:03Z</time>
      </trkpt>
      <trkpt lat="45.16178" lon="5.75394">
        <ele>222.1</ele>
        <time>2020-04-22T08:16:23Z</time>
      </trkpt>
      <trkpt lat="45.16102" lon="5.75522">
        <ele>217.9</ele>
        <time>2020-04-22T08:17:10Z</time>
      </trkpt>
      <trkpt lat="45.16066" lon="5.7561">
        <ele>217.2</ele>
        <time>2020-04-22T08:17:34Z</time>
      </trkpt>
      <trkpt lat="45.16022" lon="5.75663">
        <ele>217.1</ele>
        <time>2020-04-22T08:17:58Z</time>
      </trkpt>
      <trkpt lat="45.15987" lon="5.75729">
        <ele>217.7</ele>
        <time>2020-04-22T08:18:22Z</time>
      </trkpt>
      <trkpt lat="45.15886" lon="5.75853">
        <ele>218</ele>
        <time>2020-04-22T08:19:11Z</time>
      </trkpt>
      <trkpt lat="45.15865" lon="5.75913">
        <ele>218.7</ele>
        <time>2020-04-22T08:19:33Z</time>
      </trkpt>
      <trkpt lat="45.15838" lon="5.7598">
        <ele>218.9</ele>
        <time>2020-04-22T08:19:59Z</time>
      </trkpt>
      <trkpt lat="45.15791" lon="5.76055">
        <ele>218.7</ele>
        <time>2020-04-22T08:20:24Z</time>
      </trkpt>
      <trkpt lat="45.15713" lon="5.76192">
        <ele>221.5</ele>
        <time>2020-04-22T08:21:10Z</time>
      </trkpt>
      <trkpt lat="45.15706" lon="5.76276">
        <ele>223.3</ele>
        <time>2020-04-22T08:21:37Z</time>
      </trkpt>
      <trkpt lat="45.15736" lon="5.76321">
        <ele>225.4</ele>
        <time>2020-04-22T08:21:59Z</time>
      </trkpt>
      <trkpt lat="45.15744" lon="5.76374">
        <ele>226.8</ele>
        <time>2020-04-22T08:23:48Z</time>
      </trkpt>
      <trkpt lat="45.15836" lon="5.76499">
        <ele>224.5</ele>
        <time>2020-04-22T08:24:37Z</time>
      </trkpt>
      <trkpt lat="45.15885" lon="5.76549">
        <ele>223.6</ele>
        <time>2020-04-22T08:24:59Z</time>
      </trkpt>
      <trkpt lat="45.16085" lon="5.76679">
        <ele>222.8</ele>
        <time>2020-04-22T08:26:26Z</time>
      </trkpt>
      <trkpt lat="45.16139" lon="5.76718">
        <ele>223.7</ele>
        <time>2020-04-22T08:26:50Z</time>
      </trkpt>
      <trkpt lat="45.16218" lon="5.76749">
        <ele>224.4</ele>
        <time>2020-04-22T08:27:16Z</time>
      </trkpt>
      <trkpt lat="45.1627" lon="5.7681">
        <ele>224.5</ele>
        <time>2020-04-22T08:27:41Z</time>
      </trkpt>
      <trkpt lat="45.16373" lon="5.76793">
        <ele>225.1</ele>
        <time>2020-04-22T08:28:35Z</time>
      </trkpt>
      <trkpt lat="45.16451" lon="5.76809">
        <ele>227.6</ele>
        <time>2020-04-22T08:29:00Z</time>
      </trkpt>
      <trkpt lat="45.16511" lon="5.76842">
        <ele>228</ele>
        <time>2020-04-22T08:29:26Z</time>
      </trkpt>
      <trkpt lat="45.16588" lon="5.76847">
        <ele>226.7</ele>
        <time>2020-04-22T08:29:49Z</time>
      </trkpt>
      <trkpt lat="45.16694" lon="5.7686">
        <ele>223.9</ele>
        <time>2020-04-22T08:30:39Z</time>
      </trkpt>
      <trkpt lat="45.16765" lon="5.76854">
        <ele>221.5</ele>
        <time>2020-04-22T08:31:04Z</time>
      </trkpt>
      <trkpt lat="45.16822" lon="5.76828">
        <ele>218.9</ele>
        <time>2020-04-22T08:31:25Z</time>
      </trkpt>
      <trkpt lat="45.16872" lon="5.76849">
        <ele>218.5</ele>
        <time>2020-04-22T08:31:47Z</time>
      </trkpt>
      <trkpt lat="45.16993" lon="5.76863">
        <ele>217.8</ele>
        <time>2020-04-22T08:32:31Z</time>
      </trkpt>
      <trkpt lat="45.17064" lon="5.76877">
        <ele>217.6</ele>
        <time>2020-04-22T08:32:56Z</time>
      </trkpt>
      <trkpt lat="45.17141" lon="5.7688">
        <ele>218</ele>
        <time>2020-04-22T08:33:20Z</time>
      </trkpt>
      <trkpt lat="45.17175" lon="5.76878">
        <ele>218.1</ele>
        <time>2020-04-22T08:33:41Z</time>
      </trkpt>
      <trkpt lat="45.17298" lon="5.76909">
        <ele>217.8</ele>
        <time>2020-04-22T08:34:30Z</time>
      </trkpt>
      <trkpt lat="45.17342" lon="5.76973">
        <ele>217.9</ele>
        <time>2020-04-22T08:34:54Z</time>
      </trkpt>
      <trkpt lat="45.17717" lon="5.77591">
        <ele>216.3</ele>
        <time>2020-04-22T08:36:30Z</time>
      </trkpt>
      <trkpt lat="45.17568" lon="5.77308">
        <ele>217.6</ele>
        <time>2020-04-22T08:36:53Z</time>
      </trkpt>
      <trkpt lat="45.17642" lon="5.77432">
        <ele>217</ele>
        <time>2020-04-22T08:37:18Z</time>
      </trkpt>
      <trkpt lat="45.17647" lon="5.77438">
        <ele>216.8</ele>
        <time>2020-04-22T08:37:43Z</time>
      </trkpt>
      <trkpt lat="45.17675" lon="5.77539">
        <ele>216.6</ele>
        <time>2020-04-22T08:38:30Z</time>
      </trkpt>
      <trkpt lat="45.17715" lon="5.77622">
        <ele>216.3</ele>
        <time>2020-04-22T08:38:53Z</time>
      </trkpt>
      <trkpt lat="45.17756" lon="5.77709">
        <ele>216.1</ele>
        <time>2020-04-22T08:39:21Z</time>
      </trkpt>
      <trkpt lat="45.17797" lon="5.77625">
        <ele>215.8</ele>
        <time>2020-04-22T08:39:47Z</time>
      </trkpt>
      <trkpt lat="45.17833" lon="5.77455">
        <ele>215.3</ele>
        <time>2020-04-22T08:40:38Z</time>
      </trkpt>
      <trkpt lat="45.17849" lon="5.77362">
        <ele>215.9</ele>
        <time>2020-04-22T08:41:02Z</time>
      </trkpt>
      <trkpt lat="45.17832" lon="5.77282">
        <ele>216</ele>
        <time>2020-04-22T08:41:28Z</time>
      </trkpt>
      <trkpt lat="45.17787" lon="5.7722">
        <ele>215.9</ele>
        <time>2020-04-22T08:41:55Z</time>
      </trkpt>
      <trkpt lat="45.17775" lon="5.77077">
        <ele>215.5</ele>
        <time>2020-04-22T08:42:40Z</time>
      </trkpt>
      <trkpt lat="45.17881" lon="5.76752">
        <ele>215.3</ele>
        <time>2020-04-22T08:43:03Z</time>
      </trkpt>
      <trkpt lat="45.17824" lon="5.76922">
        <ele>214</ele>
        <time>2020-04-22T08:43:27Z</time>
      </trkpt>
      <trkpt lat="45.17837" lon="5.76844">
        <ele>214.2</ele>
        <time>2020-04-22T08:43:52Z</time>
      </trkpt>
      <trkpt lat="45.17755" lon="5.767">
        <ele>213.8</ele>
        <time>2020-04-22T08:44:39Z</time>
      </trkpt>
      <trkpt lat="45.17732" lon="5.76657">
        <ele>213.5</ele>
        <time>2020-04-22T08:45:00Z</time>
      </trkpt>
      <trkpt lat="45.17743" lon="5.76386">
        <ele>213.8</ele>
        <time>2020-04-22T08:46:43Z</time>
      </trkpt>
      <trkpt lat="45.17786" lon="5.76324">
        <ele>213.9</ele>
        <time>2020-04-22T08:47:06Z</time>
      </trkpt>
      <trkpt lat="45.17828" lon="5.76253">
        <ele>214</ele>
        <time>2020-04-22T08:47:27Z</time>
      </trkpt>
      <trkpt lat="45.17854" lon="5.76188">
        <ele>214.7</ele>
        <time>2020-04-22T08:47:51Z</time>
      </trkpt>
      <trkpt lat="45.17886" lon="5.76065">
        <ele>214.7</ele>
        <time>2020-04-22T08:48:39Z</time>
      </trkpt>
      <trkpt lat="45.17853" lon="5.75976">
        <ele>213.7</ele>
        <time>2020-04-22T08:49:02Z</time>
      </trkpt>
      <trkpt lat="45.1784" lon="5.75908">
        <ele>213.6</ele>
        <time>2020-04-22T08:49:25Z</time>
      </trkpt>
      <trkpt lat="45.17816" lon="5.7582">
        <ele>213.7</ele>
        <time>2020-04-22T08:49:49Z</time>
      </trkpt>
      <trkpt lat="45.17768" lon="5.75652">
        <ele>215</ele>
        <time>2020-04-22T08:50:38Z</time>
      </trkpt>
      <trkpt lat="45.17753" lon="5.7556">
        <ele>215.1</ele>
        <time>2020-04-22T08:51:02Z</time>
      </trkpt>
      <trkpt lat="45.17745" lon="5.75495">
        <ele>214.8</ele>
        <time>2020-04-22T08:51:26Z</time>
      </trkpt>
      <trkpt lat="45.1771" lon="5.75392">
        <ele>214.9</ele>
        <time>2020-04-22T08:51:54Z</time>
      </trkpt>
      <trkpt lat="45.17673" lon="5.7524">
        <ele>215.5</ele>
        <time>2020-04-22T08:52:42Z</time>
      </trkpt>
      <trkpt lat="45.17651" lon="5.75165">
        <ele>215.6</ele>
        <time>2020-04-22T08:53:06Z</time>
      </trkpt>
      <trkpt lat="45.17634" lon="5.75093">
        <ele>215.2</ele>
        <time>2020-04-22T08:53:29Z</time>
      </trkpt>
      <trkpt lat="45.17611" lon="5.75031">
        <ele>215.2</ele>
        <time>2020-04-22T08:53:51Z</time>
      </trkpt>
      <trkpt lat="45.17545" lon="5.74839">
        <ele>216.4</ele>
        <time>2020-04-22T08:54:36Z</time>
      </trkpt>
      <trkpt lat="45.17493" lon="5.74753">
        <ele>216.4</ele>
        <time>2020-04-22T08:55:03Z</time>
      </trkpt>
      <trkpt lat="45.17454" lon="5.74501">
        <ele>214.1</ele>
      </trkpt>
    </trkseg>
  </trk>
</gpx>